YTLG weather

Taralga Grathawa Airport
New South Wales, Australia

Public forecast

Using degrees Celsius for public forecast. Weather courtesy of forecast.io.

METAR (pilot weather report)

Closest report is Nowra Airport, 54.4 nm (100.8 km) SE. Retrieved 2019/03/25 15:00 UTC (33 minutes ago):

YSNW 251500Z AUTO 29006KT 9999 // NCD 15/12 Q1013

TAF (pilot weather forecast)

Closest forecast is RAAF Base Richmond, 64.7 nm (119.8 km) NE. Retrieved 2019/03/25 12:37 UTC (3 hours ago):

TAF YSRI 251132Z 2512/2612 17010KT 9999 BKN040 BECMG 2512/2514 VRB03KT 9999 FEW020 BKN030 FM252000 24005KT CAVOK FM260100 16010KT CAVOK FM260900 23005KT CAVOK